Time;durP1;ratioP1;P1;durP2;ratioP2;P2;SDS_P1;SDS_P2;PMS_P1;PMS_P2;Temp;Humidity;BMP_temperature;BMP_pressure;BME280_temperature;BME280_humidity;BME280_pressure;Samples;Min_cycle;Max_cycle;Signal;HPM_P1;HPM_P2
2023/03/11 00:01:59;;;;;;;6.30;2.77;;;12.00;50.40;;;;;;5049575;28;20461;-76
2023/03/11 00:04:27;;;;;;;4.73;3.00;;;12.00;49.90;;;;;;5052096;28;20454;-76
2023/03/11 00:06:55;;;;;;;5.23;2.93;;;11.90;49.00;;;;;;5051573;28;20450;-76
2023/03/11 00:09:23;;;;;;;4.50;2.50;;;11.90;49.70;;;;;;5049737;28;20481;-77
2023/03/11 00:11:51;;;;;;;5.70;2.10;;;11.80;48.90;;;;;;5053152;28;20502;-76
2023/03/11 00:14:19;;;;;;;3.90;2.40;;;11.80;49.40;;;;;;5049692;28;20493;-76
2023/03/11 00:16:47;;;;;;;3.80;2.70;;;11.70;48.40;;;;;;5047972;28;20443;-76
2023/03/11 00:19:16;;;;;;;5.83;2.57;;;11.70;48.70;;;;;;5049432;28;20447;-74
2023/03/11 00:21:44;;;;;;;4.37;2.33;;;11.70;49.20;;;;;;5052133;28;20446;-75
2023/03/11 00:24:12;;;;;;;4.70;2.50;;;11.80;48.60;;;;;;5051622;28;20474;-75
2023/03/11 00:26:39;;;;;;;3.93;2.53;;;11.70;48.70;;;;;;5061489;28;20490;-76
2023/03/11 00:29:07;;;;;;;4.17;2.50;;;11.70;48.60;;;;;;5053125;28;20470;-74
2023/03/11 00:31:35;;;;;;;4.67;2.77;;;11.70;48.60;;;;;;5050074;28;20469;-76
2023/03/11 00:34:03;;;;;;;4.00;2.50;;;11.70;48.40;;;;;;5054206;28;20465;-75
2023/03/11 00:36:33;;;;;;;4.10;2.50;;;11.70;48.40;;;;;;5051034;28;20475;-76
2023/03/11 00:39:05;;;;;;;2.67;1.83;;;11.70;48.20;;;;;;5051022;28;20474;-77
2023/03/11 00:41:33;;;;;;;3.23;2.27;;;11.70;48.60;;;;;;5053281;28;20504;-79
2023/03/11 00:44:01;;;;;;;5.70;3.73;;;11.70;47.70;;;;;;5064726;28;20445;-77
2023/03/11 00:46:30;;;;;;;30.87;17.23;;;11.60;48.40;;;;;;5063305;28;20976;-77
2023/03/11 00:48:58;;;;;;;65.10;32.20;;;11.70;48.60;;;;;;5047161;28;20479;-77
2023/03/11 00:51:27;;;;;;;57.50;30.83;;;11.70;48.30;;;;;;5055446;28;20458;-80
2023/03/11 00:53:56;;;;;;;46.53;24.70;;;11.70;48.50;;;;;;5063616;28;20441;-78
2023/03/11 00:56:24;;;;;;;32.67;18.37;;;11.50;48.00;;;;;;5052337;28;20482;-77
2023/03/11 00:58:52;;;;;;;35.27;19.20;;;11.40;48.10;;;;;;5045910;28;20447;-76
2023/03/11 01:01:20;;;;;;;29.80;15.20;;;11.40;49.30;;;;;;5053342;28;20451;-77
2023/03/11 01:03:48;;;;;;;26.87;14.00;;;11.40;48.60;;;;;;5052816;28;20451;-77
2023/03/11 01:06:16;;;;;;;24.33;12.27;;;11.40;48.80;;;;;;5048541;28;20472;-77
2023/03/11 01:08:44;;;;;;;20.27;10.40;;;11.20;48.70;;;;;;5053623;28;20478;-78
2023/03/11 01:11:13;;;;;;;15.43;8.60;;;11.20;49.60;;;;;;5050356;28;20467;-77
2023/03/11 01:13:43;;;;;;;14.00;7.33;;;11.10;49.70;;;;;;5048726;28;20454;-77
2023/03/11 01:16:12;;;;;;;11.20;5.67;;;11.10;49.70;;;;;;5048945;28;20473;-77
2023/03/11 01:18:40;;;;;;;11.90;5.40;;;11.10;50.10;;;;;;5048708;28;20450;-77
2023/03/11 01:21:08;;;;;;;9.43;5.00;;;11.20;49.60;;;;;;5049103;28;20529;-76
2023/03/11 01:23:36;;;;;;;6.50;4.00;;;11.10;49.20;;;;;;5045178;28;20457;-77
2023/03/11 01:26:04;;;;;;;11.63;4.40;;;11.10;49.60;;;;;;5052330;28;20530;-77
2023/03/11 01:28:34;;;;;;;7.57;3.27;;;11.10;49.60;;;;;;5054064;28;20445;-77
2023/03/11 01:31:01;;;;;;;7.20;3.40;;;10.90;49.00;;;;;;5052065;28;20458;-77
2023/03/11 01:33:30;;;;;;;5.23;2.80;;;10.90;49.20;;;;;;5050428;28;20465;-76
2023/03/11 01:35:58;;;;;;;3.50;2.60;;;10.90;49.30;;;;;;5049530;28;20485;-77
2023/03/11 01:38:26;;;;;;;8.63;2.63;;;10.70;49.20;;;;;;5051195;28;20451;-77
2023/03/11 01:40:54;;;;;;;4.47;2.27;;;10.70;49.50;;;;;;5050866;28;20474;-78
2023/03/11 01:43:53;;;;;;;4.17;2.40;;;10.60;49.50;;;;;;5053935;28;20466;-77
2023/03/11 01:46:22;;;;;;;5.23;2.40;;;10.70;49.50;;;;;;5049940;28;20533;-77
2023/03/11 01:48:50;;;;;;;5.53;2.20;;;10.60;49.50;;;;;;5052385;28;20546;-76
2023/03/11 01:51:22;;;;;;;3.20;1.90;;;10.60;49.20;;;;;;5051471;28;20454;-77
2023/03/11 01:53:51;;;;;;;10.37;2.20;;;10.60;49.70;;;;;;5053168;28;20450;-77
2023/03/11 01:56:19;;;;;;;5.47;1.73;;;10.50;49.40;;;;;;5052077;28;20505;-77
2023/03/11 01:58:51;;;;;;;6.67;1.57;;;10.40;49.50;;;;;;5050139;28;20454;-78
2023/03/11 02:01:19;;;;;;;3.50;1.90;;;10.50;50.10;;;;;;5053613;28;20451;-77
2023/03/11 02:03:48;;;;;;;5.90;1.90;;;10.60;49.50;;;;;;5051693;28;20521;-78
2023/03/11 02:06:17;;;;;;;4.50;1.90;;;10.60;49.40;;;;;;5053457;28;20477;-77
2023/03/11 02:08:45;;;;;;;5.27;1.90;;;10.60;49.60;;;;;;5053874;28;20442;-77
2023/03/11 02:11:15;;;;;;;4.53;1.90;;;10.70;49.60;;;;;;5050709;28;20481;-77
2023/03/11 02:13:43;;;;;;;8.30;1.83;;;10.80;49.50;;;;;;5046821;28;20447;-77
2023/03/11 02:16:13;;;;;;;4.13;1.83;;;11.00;49.30;;;;;;5053110;28;20550;-77
2023/03/11 02:18:41;;;;;;;4.63;1.73;;;11.00;49.00;;;;;;5048518;28;20451;-77
2023/03/11 02:21:16;;;;;;;4.03;1.87;;;11.00;49.00;;;;;;5045714;28;20442;-77
2023/03/11 02:23:47;;;;;;;3.77;1.90;;;11.00;48.80;;;;;;5053407;28;20460;-78
2023/03/11 02:26:16;;;;;;;5.37;2.10;;;11.00;49.20;;;;;;5045456;28;20470;-77
2023/03/11 02:28:46;;;;;;;7.60;2.23;;;11.10;48.90;;;;;;5049310;28;20447;-77
2023/03/11 02:31:14;;;;;;;6.10;2.20;;;11.00;48.90;;;;;;5042227;28;20478;-77
2023/03/11 02:33:41;;;;;;;5.73;2.00;;;10.90;49.00;;;;;;5050605;28;21006;-77
2023/03/11 02:36:31;;;;;;;6.10;1.90;;;10.90;48.90;;;;;;5051128;28;20497;-77
2023/03/11 02:38:59;;;;;;;8.37;2.33;;;10.90;48.60;;;;;;5052551;28;20542;-76
2023/03/11 02:41:27;;;;;;;5.33;2.33;;;10.80;48.40;;;;;;5053234;28;20483;-77
2023/03/11 02:43:56;;;;;;;3.90;1.70;;;11.00;49.30;;;;;;5049950;28;20449;-77
2023/03/11 02:46:24;;;;;;;3.70;2.10;;;11.00;48.70;;;;;;5050895;28;20462;-77
2023/03/11 02:48:52;;;;;;;4.73;1.83;;;10.90;48.50;;;;;;5051062;28;20462;-77
2023/03/11 02:51:20;;;;;;;9.87;2.50;;;10.90;48.10;;;;;;5056164;28;20466;-77
2023/03/11 02:53:49;;;;;;;3.90;1.80;;;10.80;48.20;;;;;;5052170;28;20826;-77
2023/03/11 02:56:17;;;;;;;7.00;2.00;;;10.80;48.60;;;;;;5052524;28;20477;-76
2023/03/11 02:58:45;;;;;;;3.30;1.53;;;10.80;48.10;;;;;;5053922;28;20458;-77
2023/03/11 03:01:14;;;;;;;6.30;2.10;;;10.80;48.80;;;;;;5053483;28;20473;-77
2023/03/11 03:03:42;;;;;;;5.77;1.87;;;10.80;48.00;;;;;;5046275;28;20458;-77
2023/03/11 03:06:11;;;;;;;2.80;1.60;;;10.80;48.90;;;;;;5050399;28;20510;-78
2023/03/11 03:08:39;;;;;;;4.23;1.77;;;10.90;48.30;;;;;;5048256;28;20459;-77
2023/03/11 03:11:07;;;;;;;6.57;2.00;;;11.00;48.10;;;;;;5048128;28;20481;-76
2023/03/11 03:13:35;;;;;;;3.83;1.80;;;11.00;47.60;;;;;;5051132;28;20454;-76
2023/03/11 03:16:03;;;;;;;3.43;1.73;;;10.90;47.00;;;;;;5052972;28;20477;-76
2023/03/11 03:18:32;;;;;;;3.80;1.60;;;10.80;47.60;;;;;;5049366;28;20453;-77
2023/03/11 03:21:00;;;;;;;7.90;1.70;;;10.80;47.50;;;;;;5051048;28;20668;-77
2023/03/11 03:23:28;;;;;;;4.27;1.67;;;10.80;47.60;;;;;;5050477;28;20446;-76
2023/03/11 03:25:56;;;;;;;2.20;1.57;;;10.70;47.10;;;;;;5047754;28;20477;-76
2023/03/11 03:28:25;;;;;;;4.87;1.57;;;10.70;47.10;;;;;;5053248;28;20462;-77
2023/03/11 03:30:52;;;;;;;3.23;1.47;;;10.60;47.50;;;;;;5051464;28;20479;-76
2023/03/11 03:33:20;;;;;;;4.57;1.40;;;10.70;47.10;;;;;;5052595;28;20470;-77
2023/03/11 03:35:50;;;;;;;7.33;1.87;;;10.60;46.80;;;;;;5056206;28;20484;-77
2023/03/11 03:38:18;;;;;;;3.77;1.70;;;10.70;47.80;;;;;;5053478;28;20474;-76
2023/03/11 03:40:46;;;;;;;2.93;1.50;;;10.80;47.80;;;;;;5053133;28;20465;-76
2023/03/11 03:43:14;;;;;;;15.33;2.03;;;10.70;46.80;;;;;;5052495;28;20457;-75
2023/03/11 03:45:42;;;;;;;2.80;1.50;;;10.80;47.50;;;;;;5057703;28;20476;-76
2023/03/11 03:48:10;;;;;;;4.50;1.50;;;10.80;47.10;;;;;;5057092;28;20537;-76
2023/03/11 03:50:39;;;;;;;7.50;2.30;;;10.70;47.40;;;;;;5050344;28;20477;-75
2023/03/11 03:53:08;;;;;;;6.93;1.70;;;10.50;46.90;;;;;;5047993;28;20446;-74
2023/03/11 03:55:37;;;;;;;6.50;1.87;;;10.40;47.00;;;;;;5049010;28;20469;-76
2023/03/11 03:58:05;;;;;;;5.80;1.63;;;10.40;47.00;;;;;;5056317;28;20450;-75
2023/03/11 04:00:34;;;;;;;1.37;1.20;;;10.40;47.40;;;;;;5056111;28;20458;-76
2023/03/11 04:03:02;;;;;;;4.50;1.90;;;10.50;47.50;;;;;;5053391;28;20464;-76
2023/03/11 04:05:30;;;;;;;5.43;1.60;;;10.40;46.90;;;;;;5057571;28;20488;-77
2023/03/11 04:07:59;;;;;;;4.70;1.50;;;10.40;47.20;;;;;;5057524;28;20458;-77
2023/03/11 04:10:28;;;;;;;3.43;1.37;;;10.50;47.40;;;;;;5054846;28;20470;-76
2023/03/11 04:12:56;;;;;;;4.80;1.60;;;10.50;47.40;;;;;;5052671;28;20450;-76
2023/03/11 04:15:24;;;;;;;4.53;1.60;;;10.50;46.50;;;;;;5062713;28;20482;-75
2023/03/11 04:17:52;;;;;;;5.93;1.57;;;10.50;47.20;;;;;;5059609;28;20449;-76
2023/03/11 04:20:20;;;;;;;7.50;1.50;;;10.50;46.60;;;;;;5058732;28;20450;-76
2023/03/11 04:22:48;;;;;;;6.47;1.50;;;10.40;46.90;;;;;;5049844;28;20450;-76
2023/03/11 04:25:16;;;;;;;10.00;2.07;;;10.40;46.50;;;;;;5050758;28;20474;-77
2023/03/11 04:27:48;;;;;;;3.60;1.30;;;10.30;46.40;;;;;;5054226;28;20474;-77
2023/03/11 04:30:17;;;;;;;2.47;1.27;;;10.30;46.80;;;;;;5055643;28;20477;-76
2023/03/11 04:32:45;;;;;;;4.47;1.67;;;10.20;46.50;;;;;;5052155;28;20455;-76
2023/03/11 04:35:13;;;;;;;3.13;1.30;;;10.20;46.90;;;;;;5053802;28;20473;-77
2023/03/11 04:37:41;;;;;;;3.63;1.33;;;10.20;46.50;;;;;;5053622;28;20455;-76
2023/03/11 04:40:10;;;;;;;4.23;1.37;;;10.30;47.00;;;;;;5054313;28;20541;-76
2023/03/11 04:42:37;;;;;;;1.87;1.37;;;10.40;46.60;;;;;;5056378;28;20983;-76
2023/03/11 04:45:09;;;;;;;4.77;1.37;;;10.50;47.00;;;;;;5051594;28;20481;-76
2023/03/11 04:47:38;;;;;;;4.20;1.50;;;10.60;46.40;;;;;;5049426;28;20457;-77
2023/03/11 04:50:06;;;;;;;6.33;1.50;;;10.40;46.20;;;;;;5056847;28;20451;-76
2023/03/11 04:52:34;;;;;;;1.70;1.40;;;10.50;46.60;;;;;;5058721;28;20474;-77
2023/03/11 04:55:02;;;;;;;2.20;1.50;;;10.50;46.20;;;;;;5056016;28;20471;-75
2023/03/11 04:57:30;;;;;;;1.67;1.40;;;10.50;46.20;;;;;;5056841;28;20474;-76
2023/03/11 04:59:58;;;;;;;6.50;1.40;;;10.60;46.40;;;;;;5054359;28;20469;-76
2023/03/11 05:02:27;;;;;;;4.63;1.60;;;10.40;45.40;;;;;;5057824;28;20454;-75
2023/03/11 05:04:55;;;;;;;3.97;1.53;;;10.20;46.00;;;;;;5052029;28;20475;-75
2023/03/11 05:07:23;;;;;;;3.67;1.87;;;10.30;46.30;;;;;;5042478;28;20458;-74
2023/03/11 05:09:51;;;;;;;3.40;1.77;;;10.30;46.00;;;;;;5049574;28;20451;-75
2023/03/11 05:12:19;;;;;;;3.77;1.60;;;10.20;46.50;;;;;;5056294;28;20478;-76
2023/03/11 05:14:47;;;;;;;2.50;1.20;;;10.30;46.20;;;;;;5048404;28;20479;-76
2023/03/11 05:17:17;;;;;;;4.47;1.40;;;10.30;46.00;;;;;;5056244;28;20464;-76
2023/03/11 05:19:47;;;;;;;3.93;1.40;;;10.30;45.80;;;;;;5054361;28;20450;-77
2023/03/11 05:22:15;;;;;;;2.73;1.40;;;10.40;45.60;;;;;;5056508;28;20961;-76
2023/03/11 05:24:44;;;;;;;4.83;1.70;;;10.20;45.00;;;;;;5055205;28;20476;-76
2023/03/11 05:27:12;;;;;;;1.93;1.30;;;10.10;46.10;;;;;;5055964;28;20485;-76
2023/03/11 05:29:41;;;;;;;2.43;1.30;;;10.20;45.80;;;;;;5053263;28;20450;-76
2023/03/11 05:32:09;;;;;;;2.30;1.30;;;10.20;45.80;;;;;;5050720;28;20481;-76
2023/03/11 05:34:37;;;;;;;5.23;1.60;;;10.20;45.70;;;;;;5059447;28;20453;-76
2023/03/11 05:37:06;;;;;;;2.03;1.33;;;10.10;45.50;;;;;;5056474;28;20455;-76
2023/03/11 05:39:36;;;;;;;6.80;1.30;;;10.20;45.80;;;;;;5054716;28;20447;-76
2023/03/11 05:42:04;;;;;;;2.30;1.17;;;10.20;44.70;;;;;;5055942;28;20474;-76
2023/03/11 05:44:33;;;;;;;5.20;1.43;;;10.00;45.60;;;;;;5060217;28;20454;-76
2023/03/11 05:47:01;;;;;;;2.53;1.37;;;10.00;45.40;;;;;;5054897;28;20455;-76
2023/03/11 05:49:29;;;;;;;4.30;1.10;;;9.90;46.00;;;;;;5052235;28;20458;-76
2023/03/11 05:51:57;;;;;;;2.67;1.00;;;9.80;46.10;;;;;;5060744;28;20480;-76
2023/03/11 05:54:27;;;;;;;1.27;1.20;;;9.70;46.80;;;;;;5056847;28;20461;-76
2023/03/11 05:56:55;;;;;;;8.20;1.30;;;9.70;46.80;;;;;;5055753;28;20478;-76
2023/03/11 05:59:23;;;;;;;5.23;1.20;;;9.80;46.90;;;;;;5060249;28;20537;-77
2023/03/11 06:01:51;;;;;;;4.63;1.07;;;9.90;46.70;;;;;;5053239;28;20453;-77
2023/03/11 06:04:19;;;;;;;5.60;1.53;;;10.00;45.70;;;;;;5051871;28;20514;-77
2023/03/11 06:06:47;;;;;;;1.77;1.43;;;9.90;45.80;;;;;;5053060;28;20470;-77
2023/03/11 06:09:15;;;;;;;4.00;1.37;;;10.00;45.60;;;;;;5055036;28;20468;-76
2023/03/11 06:11:45;;;;;;;4.23;1.47;;;10.00;44.80;;;;;;5052364;28;20471;-76
2023/03/11 06:14:13;;;;;;;5.33;1.37;;;10.00;45.60;;;;;;5053351;28;20526;-77
2023/03/11 06:16:41;;;;;;;2.37;1.50;;;10.10;45.20;;;;;;5050904;28;21038;-77
2023/03/11 06:19:09;;;;;;;5.10;1.70;;;10.00;44.90;;;;;;5053772;28;20522;-77
2023/03/11 06:21:37;;;;;;;6.57;1.40;;;9.90;46.00;;;;;;5048351;28;20456;-76
2023/03/11 06:24:06;;;;;;;2.10;1.00;;;9.90;46.30;;;;;;5058147;28;20467;-76
2023/03/11 06:26:34;;;;;;;5.33;1.30;;;9.80;46.00;;;;;;5051846;28;20974;-76
2023/03/11 06:29:04;;;;;;;8.20;1.60;;;9.80;46.10;;;;;;5053186;28;20457;-76
2023/03/11 06:31:31;;;;;;;7.30;1.63;;;9.80;46.40;;;;;;5057518;28;20482;-76
2023/03/11 06:33:59;;;;;;;16.73;1.70;;;9.90;46.20;;;;;;5049570;28;20455;-76
2023/03/11 06:36:28;;;;;;;4.03;2.00;;;9.90;46.50;;;;;;5058581;28;20470;-75
2023/03/11 06:38:55;;;;;;;5.13;1.80;;;9.90;45.60;;;;;;5051802;28;20814;-76
2023/03/11 06:41:24;;;;;;;5.70;1.70;;;9.80;45.90;;;;;;5057560;28;20477;-76
2023/03/11 06:43:52;;;;;;;4.20;1.63;;;9.80;45.90;;;;;;5057951;28;20478;-75
2023/03/11 06:46:21;;;;;;;6.50;1.60;;;9.80;45.80;;;;;;5054176;28;20482;-77
2023/03/11 06:48:50;;;;;;;4.03;1.60;;;9.80;45.80;;;;;;5052873;28;20453;-76
2023/03/11 06:51:19;;;;;;;7.60;1.93;;;9.90;46.30;;;;;;5054486;28;20458;-76
2023/03/11 06:53:48;;;;;;;4.80;1.60;;;9.90;46.10;;;;;;5048855;28;20455;-76
2023/03/11 06:56:16;;;;;;;3.53;1.40;;;9.80;45.80;;;;;;5050347;28;20478;-76
2023/03/11 06:58:44;;;;;;;6.63;1.47;;;9.90;46.30;;;;;;5056048;28;20442;-76
2023/03/11 07:01:13;;;;;;;2.90;1.40;;;9.80;46.00;;;;;;5055753;28;20484;-76
2023/03/11 07:03:43;;;;;;;2.57;1.40;;;9.80;45.90;;;;;;5057510;28;20510;-76
2023/03/11 07:06:12;;;;;;;1.93;1.30;;;9.90;46.40;;;;;;5053662;28;20470;-76
2023/03/11 07:08:40;;;;;;;7.20;1.40;;;9.80;45.70;;;;;;5057415;28;20476;-76
2023/03/11 07:11:09;;;;;;;3.67;1.40;;;9.80;46.30;;;;;;5049221;28;20474;-77
2023/03/11 07:13:37;;;;;;;2.60;1.20;;;9.80;46.30;;;;;;5052742;28;20489;-77
2023/03/11 07:16:05;;;;;;;3.80;1.93;;;9.80;45.90;;;;;;5051529;28;20478;-76
2023/03/11 07:18:34;;;;;;;1.67;1.20;;;9.80;46.00;;;;;;5047237;28;20457;-76
2023/03/11 07:21:04;;;;;;;3.37;1.10;;;9.80;46.00;;;;;;5048842;28;20450;-76
2023/03/11 07:23:32;;;;;;;5.00;1.67;;;9.70;46.00;;;;;;5050192;28;20447;-77
2023/03/11 07:26:00;;;;;;;3.37;1.10;;;9.70;46.20;;;;;;5050960;28;20476;-76
2023/03/11 07:28:28;;;;;;;4.17;1.27;;;9.70;46.20;;;;;;5054044;28;20457;-76
2023/03/11 07:30:56;;;;;;;3.60;1.70;;;9.80;46.10;;;;;;5047770;28;20458;-76
2023/03/11 07:33:24;;;;;;;12.87;1.50;;;9.80;46.20;;;;;;5051853;28;20470;-76
2023/03/11 07:35:52;;;;;;;3.67;1.50;;;9.90;46.00;;;;;;5056494;28;20493;-77
2023/03/11 07:38:21;;;;;;;8.73;1.47;;;9.90;46.10;;;;;;5052046;28;20461;-76
2023/03/11 07:40:58;;;;;;;6.67;1.60;;;9.90;46.50;;;;;;5044230;28;20479;-76
2023/03/11 07:43:26;;;;;;;4.70;1.70;;;10.00;45.30;;;;;;5053143;28;20521;-76
2023/03/11 07:46:02;;;;;;;6.50;1.67;;;10.10;45.50;;;;;;5046265;28;20474;-76
2023/03/11 07:48:30;;;;;;;3.03;1.30;;;10.10;45.40;;;;;;5049319;28;20446;-76
2023/03/11 07:51:03;;;;;;;3.60;1.30;;;10.10;45.00;;;;;;5055553;28;20450;-75
2023/03/11 07:53:32;;;;;;;3.70;1.60;;;10.10;45.10;;;;;;5049013;28;20471;-76
2023/03/11 07:56:00;;;;;;;8.17;1.90;;;10.10;44.80;;;;;;5051736;28;20480;-76
2023/03/11 07:58:28;;;;;;;3.53;1.90;;;10.10;45.00;;;;;;5055279;28;20951;-77
2023/03/11 08:00:57;;;;;;;10.17;2.20;;;10.10;44.90;;;;;;5052693;28;20449;-76
2023/03/11 08:03:25;;;;;;;2.50;1.97;;;10.10;45.30;;;;;;5051113;28;20455;-76
2023/03/11 08:05:53;;;;;;;8.37;2.10;;;10.30;45.50;;;;;;5049590;28;20572;-76
2023/03/11 08:08:21;;;;;;;2.60;1.73;;;10.40;44.70;;;;;;5048901;28;20455;-76
2023/03/11 08:10:50;;;;;;;2.17;1.67;;;10.50;45.30;;;;;;5052605;28;20476;-77
2023/03/11 08:13:18;;;;;;;5.63;1.70;;;10.50;45.40;;;;;;5048605;28;20997;-76
2023/03/11 08:15:46;;;;;;;6.23;1.70;;;10.60;45.00;;;;;;5056914;28;20481;-76
2023/03/11 08:18:14;;;;;;;9.47;2.10;;;10.60;45.10;;;;;;5049625;28;20458;-76
2023/03/11 08:20:44;;;;;;;3.17;2.07;;;10.80;45.50;;;;;;5053956;28;20455;-76
2023/03/11 08:23:12;;;;;;;4.50;2.13;;;10.90;45.20;;;;;;5050991;28;20471;-77
2023/03/11 08:25:40;;;;;;;4.40;2.27;;;11.00;45.10;;;;;;5053720;28;20478;-76
2023/03/11 08:28:09;;;;;;;5.03;2.33;;;11.20;45.60;;;;;;5050807;28;20453;-75
2023/03/11 08:30:37;;;;;;;4.30;2.40;;;11.50;45.30;;;;;;5053985;28;20458;-76
2023/03/11 08:33:06;;;;;;;5.33;2.07;;;11.60;45.20;;;;;;5054754;28;20464;-76
2023/03/11 08:35:34;;;;;;;3.33;1.90;;;11.90;45.00;;;;;;5059968;28;20549;-76
2023/03/11 08:38:02;;;;;;;7.00;2.10;;;12.20;45.30;;;;;;5052379;28;20489;-77
2023/03/11 08:40:30;;;;;;;6.07;2.10;;;12.30;44.90;;;;;;5055057;28;20460;-75
2023/03/11 08:42:58;;;;;;;3.10;2.17;;;12.60;44.70;;;;;;5055105;28;20454;-75
2023/03/11 08:45:27;;;;;;;3.33;2.03;;;12.80;45.20;;;;;;5055815;28;20478;-76
2023/03/11 08:47:55;;;;;;;4.80;2.30;;;13.00;44.20;;;;;;5042330;28;20451;-75
2023/03/11 08:50:23;;;;;;;2.77;2.10;;;13.10;44.30;;;;;;5048292;28;20458;-78
2023/03/11 08:52:51;;;;;;;9.37;2.00;;;13.30;44.00;;;;;;5051608;28;20474;-77
2023/03/11 08:55:23;;;;;;;3.50;2.10;;;13.50;44.20;;;;;;5052620;28;20474;-77
2023/03/11 08:57:51;;;;;;;2.60;2.17;;;13.70;43.80;;;;;;5046827;28;20474;-76
2023/03/11 09:00:20;;;;;;;6.63;1.90;;;14.00;44.10;;;;;;5047584;28;20438;-77
2023/03/11 09:02:49;;;;;;;4.53;2.30;;;14.20;43.50;;;;;;5055282;28;20454;-77
2023/03/11 09:05:18;;;;;;;3.20;1.93;;;14.50;43.40;;;;;;5053156;28;20482;-78
2023/03/11 09:07:46;;;;;;;4.00;2.30;;;14.70;44.00;;;;;;5056037;28;20455;-77
2023/03/11 09:10:14;;;;;;;5.30;3.00;;;14.90;43.40;;;;;;5051413;28;20458;-78
2023/03/11 09:12:42;;;;;;;5.30;2.70;;;15.20;44.00;;;;;;5056798;28;20501;-78
2023/03/11 09:15:10;;;;;;;5.20;2.80;;;15.40;43.20;;;;;;5052871;28;20477;-78
2023/03/11 09:17:38;;;;;;;7.20;2.53;;;15.60;42.90;;;;;;5057772;28;20849;-78
2023/03/11 09:20:11;;;;;;;5.03;2.53;;;15.80;42.70;;;;;;5056142;28;20463;-78
2023/03/11 09:22:39;;;;;;;7.30;2.50;;;16.00;42.60;;;;;;5056863;28;20453;-78
2023/03/11 09:25:08;;;;;;;7.47;2.60;;;16.10;41.60;;;;;;5059112;28;20482;-77
2023/03/11 09:27:35;;;;;;;5.90;2.43;;;16.10;41.60;;;;;;5049100;28;20485;-78
2023/03/11 09:30:04;;;;;;;6.40;2.90;;;16.30;41.90;;;;;;5055577;28;20465;-78
2023/03/11 09:32:32;;;;;;;6.27;4.27;;;16.50;41.40;;;;;;5055372;28;20954;-77
2023/03/11 09:35:01;;;;;;;14.47;5.60;;;16.70;41.30;;;;;;5051873;28;20502;-79
2023/03/11 09:37:30;;;;;;;10.20;5.20;;;16.90;40.90;;;;;;5056446;28;20461;-78
2023/03/11 09:39:58;;;;;;;10.67;4.93;;;17.00;40.10;;;;;;5049459;28;20464;-78
2023/03/11 09:42:29;;;;;;;7.30;4.70;;;17.20;40.50;;;;;;5055457;28;20467;-77
2023/03/11 09:44:59;;;;;;;8.40;5.20;;;17.50;40.50;;;;;;5049433;28;20466;-78
2023/03/11 09:47:38;;;;;;;9.73;5.60;;;17.80;40.70;;;;;;5055720;28;20542;-77
2023/03/11 09:50:21;;;;;;;8.77;4.70;;;18.00;40.40;;;;;;5052221;28;20451;-77
2023/03/11 09:53:02;;;;;;;7.17;4.80;;;18.00;39.50;;;;;;5052964;28;20454;-77
2023/03/11 09:55:37;;;;;;;8.10;4.60;;;18.30;40.40;;;;;;5047700;28;20462;-77
2023/03/11 09:58:10;;;;;;;6.70;4.40;;;18.40;38.90;;;;;;5050599;28;20453;-77
2023/03/11 10:00:38;;;;;;;8.23;4.43;;;18.40;39.00;;;;;;5049686;28;20454;-77
2023/03/11 10:03:07;;;;;;;5.70;3.83;;;18.80;39.60;;;;;;5043820;28;20446;-75
2023/03/11 10:05:35;;;;;;;7.90;4.43;;;19.00;39.20;;;;;;5046297;28;20546;-77
2023/03/11 10:08:10;;;;;;;8.17;4.20;;;19.20;38.80;;;;;;5045764;28;20462;-77
2023/03/11 10:10:40;;;;;;;5.77;4.37;;;19.40;38.60;;;;;;5054922;28;20456;-77
2023/03/11 10:13:12;;;;;;;9.33;3.87;;;19.60;38.80;;;;;;5054829;28;20458;-78
2023/03/11 10:15:47;;;;;;;10.80;3.53;;;19.80;38.30;;;;;;5051306;28;20481;-77
2023/03/11 10:18:25;;;;;;;10.03;3.27;;;19.80;37.20;;;;;;5051106;28;20495;-76
2023/03/11 10:20:54;;;;;;;6.70;3.60;;;20.10;37.90;;;;;;5057152;28;20472;-75
2023/03/11 10:23:26;;;;;;;7.00;3.43;;;20.30;37.60;;;;;;5056582;28;20457;-76
2023/03/11 10:26:00;;;;;;;7.27;3.27;;;20.30;36.50;;;;;;5057079;28;20974;-76
2023/03/11 10:28:30;;;;;;;3.00;2.63;;;20.50;38.00;;;;;;5055506;28;20477;-74
2023/03/11 10:31:01;;;;;;;6.00;2.97;;;20.90;36.50;;;;;;5052234;28;20434;-76
2023/03/11 10:33:31;;;;;;;2.73;2.50;;;20.80;36.30;;;;;;5056902;28;20482;-77
2023/03/11 10:36:00;;;;;;;6.47;2.80;;;21.10;36.60;;;;;;5046043;28;20482;-76
2023/03/11 10:38:31;;;;;;;7.33;2.50;;;21.20;35.60;;;;;;5052012;28;20446;-77
2023/03/11 10:41:01;;;;;;;5.63;2.50;;;21.40;35.50;;;;;;5049260;28;20458;-77
2023/03/11 10:43:31;;;;;;;3.73;2.30;;;21.40;35.40;;;;;;5052543;28;20446;-77
2023/03/11 10:46:02;;;;;;;4.20;2.43;;;21.40;34.40;;;;;;5044805;28;20485;-78
2023/03/11 10:48:30;;;;;;;5.43;3.60;;;21.40;34.90;;;;;;5056940;28;21012;-76
2023/03/11 10:51:02;;;;;;;7.67;3.87;;;21.70;35.10;;;;;;5050944;28;20428;-78
2023/03/11 10:53:31;;;;;;;11.03;5.23;;;22.00;35.20;;;;;;5047756;28;20541;-76
2023/03/11 10:56:00;;;;;;;12.47;7.47;;;22.40;35.20;;;;;;5041306;28;20482;-77
2023/03/11 10:58:28;;;;;;;10.07;7.13;;;22.60;33.80;;;;;;5052130;28;20898;-77
2023/03/11 11:01:01;;;;;;;13.73;5.57;;;22.70;33.80;;;;;;5051060;28;20485;-76
2023/03/11 11:03:29;;;;;;;12.43;6.10;;;22.80;33.10;;;;;;5053941;28;20459;-79
2023/03/11 11:05:59;;;;;;;7.53;5.70;;;22.90;33.30;;;;;;5050529;28;20480;-77
2023/03/11 11:08:30;;;;;;;12.23;4.77;;;23.10;33.30;;;;;;5049078;28;20531;-76
2023/03/11 11:10:59;;;;;;;7.80;4.77;;;23.20;32.40;;;;;;5045802;28;20470;-77
2023/03/11 11:13:31;;;;;;;8.63;5.10;;;23.30;32.40;;;;;;5054623;28;20490;-77
2023/03/11 11:16:00;;;;;;;7.20;4.50;;;23.60;32.80;;;;;;5047071;28;20556;-75
2023/03/11 11:18:30;;;;;;;7.97;4.10;;;23.70;31.50;;;;;;5042791;28;20425;-75
2023/03/11 11:21:01;;;;;;;9.57;4.60;;;24.10;32.90;;;;;;5045282;28;20459;-78
2023/03/11 11:23:49;;;;;;;4.73;3.40;;;24.40;31.20;;;;;;5045150;28;20454;-77
2023/03/11 11:26:21;;;;;;;5.03;2.97;;;25.00;30.10;;;;;;5045889;28;20491;-76
2023/03/11 11:29:04;;;;;;;4.07;2.70;;;25.80;29.20;;;;;;5050979;28;20450;-76
2023/03/11 11:31:35;;;;;;;5.60;3.97;;;26.80;28.80;;;;;;5054922;28;20462;-76
2023/03/11 11:34:05;;;;;;;4.57;3.23;;;28.30;28.60;;;;;;5054978;28;20476;-76
2023/03/11 11:36:35;;;;;;;6.67;3.00;;;29.40;26.70;;;;;;5051569;28;20467;-76
2023/03/11 11:39:09;;;;;;;3.20;2.23;;;30.20;25.90;;;;;;5053931;28;20432;-76
2023/03/11 11:41:37;;;;;;;2.10;1.90;;;30.90;25.00;;;;;;5048558;28;20474;-76
2023/03/11 11:44:06;;;;;;;5.40;2.03;;;31.80;23.90;;;;;;5053791;28;20482;-77
2023/03/11 11:46:37;;;;;;;4.80;2.70;;;31.80;24.40;;;;;;5050259;28;20490;-78
2023/03/11 11:49:10;;;;;;;6.83;4.33;;;29.20;24.60;;;;;;5050839;28;20454;-77
2023/03/11 11:51:40;;;;;;;3.07;2.47;;;28.20;23.30;;;;;;5053381;28;20508;-77
2023/03/11 11:54:16;;;;;;;7.60;2.30;;;24.20;24.40;;;;;;5052915;28;20426;-77
2023/03/11 11:56:44;;;;;;;4.67;2.10;;;20.90;27.20;;;;;;5059203;28;20528;-77
2023/03/11 11:59:17;;;;;;;9.23;2.13;;;18.80;29.20;;;;;;5059262;28;20461;-77
2023/03/11 12:01:59;;;;;;;9.57;2.50;;;21.00;30.40;;;;;;5057468;28;20446;-78
2023/03/11 12:04:37;;;;;;;7.00;3.43;;;19.70;28.00;;;;;;5052622;28;20446;-80
2023/03/11 12:07:16;;;;;;;18.80;2.70;;;21.20;28.70;;;;;;5052377;28;20449;-77
2023/03/11 12:09:49;;;;;;;18.63;2.80;;;22.20;31.80;;;;;;5046519;28;20461;-76
2023/03/11 12:12:21;;;;;;;20.73;3.13;;;23.70;32.20;;;;;;5051128;28;20465;-78
2023/03/11 12:14:51;;;;;;;15.43;2.30;;;24.70;33.20;;;;;;5055449;28;20878;-77
2023/03/11 12:17:19;;;;;;;9.93;2.40;;;25.30;33.50;;;;;;5050128;28;20429;-75
2023/03/11 12:19:49;;;;;;;9.80;3.00;;;25.60;32.60;;;;;;5046960;28;20406;-74
2023/03/11 12:22:49;;;;;;;7.93;2.50;;;25.80;32.40;;;;;;5047286;28;20409;-76
2023/03/11 12:25:28;;;;;;;3.90;2.27;;;26.00;32.80;;;;;;5049846;28;20447;-77
2023/03/11 12:27:59;;;;;;;7.37;2.50;;;26.20;33.00;;;;;;5054768;28;21222;-75
2023/03/11 12:30:29;;;;;;;4.77;2.80;;;26.40;33.20;;;;;;5045310;28;20446;-75
2023/03/11 12:32:59;;;;;;;9.23;2.53;;;26.50;33.30;;;;;;5043348;28;20454;-78
2023/03/11 12:35:28;;;;;;;11.07;2.90;;;26.60;33.00;;;;;;5052715;28;20481;-77
2023/03/11 12:38:05;;;;;;;10.83;2.40;;;26.70;33.50;;;;;;5053321;28;20455;-77
2023/03/11 12:41:00;;;;;;;10.90;2.83;;;26.80;33.70;;;;;;5057425;28;20429;-78
2023/03/11 12:44:03;;;;;;;11.20;2.90;;;26.90;33.90;;;;;;5050217;28;20453;-76
2023/03/11 12:47:08;;;;;;;11.47;2.60;;;27.00;34.10;;;;;;5055717;28;20470;-79
2023/03/11 12:49:36;;;;;;;14.10;3.20;;;27.00;34.10;;;;;;5051425;28;20432;-76
2023/03/11 12:52:16;;;;;;;9.53;2.47;;;27.00;34.40;;;;;;5055094;28;20417;-78
2023/03/11 12:54:44;;;;;;;10.10;2.93;;;27.00;34.50;;;;;;5059775;28;20451;-78
2023/03/11 12:57:31;;;;;;;12.50;2.43;;;27.00;34.70;;;;;;5059392;28;20452;-77
2023/03/11 13:00:21;;;;;;;5.53;2.47;;;27.00;34.40;;;;;;5044582;28;20476;-79